M I D A S
Marine Information and Data Acquisition System
Tripno 1493 of the Zeeleeuw from 2008-05-27 06:58:41 to 2008-05-27 12:51:19
Back to CruiseResearch ActivitiesStationsMapUnderway DataData graphs

EquipmentUnitsComment
TimeDGPSUTC
LatitudeDGPSDM.mWGS84
LongitudeDGPSDM.mWGS84
HeadingGyrodeg 
SOGDGPSknotsSpeed over ground
COGDGPSdegCourse over ground
DepthEcho soundermeters200 kHz
Missing or incorrect values are displayed as -999
Navigation data collected by the RV Zeeleeuw from 2008-05-27 06:55:51 to 2008-05-27 12:55:50
Time Latitude Longitude Heading SOG COG Depth
2008-05-27 06:56:56 51°13.622 2°56.049 115 0.2 52 -999
2008-05-27 06:57:56 51°13.622 2°56.049 116.3 0.1 192 -999
2008-05-27 06:58:56 51°13.624 2°56.034 108.3 2.3 290 -999
2008-05-27 06:59:56 51°13.651 2°55.942 114.4 4.6 295 -999
2008-05-27 07:00:56 51°13.68 2°55.839 109.2 3.5 291 -999
2008-05-27 07:01:55 51°13.694 2°55.78 101.3 1.4 291 12.6
2008-05-27 07:02:56 51°13.7 2°55.769 68.8 0.5 19 -999
2008-05-27 07:03:56 51°13.706 2°55.767 46.4 0.4 273 -999
2008-05-27 07:04:56 51°13.701 2°55.749 39.4 0.8 230 14.2
2008-05-27 07:05:55 51°13.694 2°55.739 35.1 0.2 239 13.8
2008-05-27 07:06:55 51°13.692 2°55.734 24.9 0.2 252 14
2008-05-27 07:07:53 51°13.692 2°55.728 20.6 0.2 275 13.9
2008-05-27 07:08:52 51°13.693 2°55.721 3.7 0.3 302 14
2008-05-27 07:09:52 51°13.747 2°55.695 339.6 3.8 337 11.7
2008-05-27 07:10:52 51°13.836 2°55.628 335.3 6 335 11.6
2008-05-27 07:11:54 51°13.928 2°55.56 337.5 5.8 335 -999
2008-05-27 07:12:53 51°14.017 2°55.497 337 6.1 337 11.6
2008-05-27 07:13:53 51°14.112 2°55.428 337.1 6.4 336 12.1
2008-05-27 07:14:56 51°14.211 2°55.339 324.8 6.5 322 11.6
2008-05-27 07:15:55 51°14.296 2°55.198 311.7 8.9 310 11.6
2008-05-27 07:16:56 51°14.414 2°54.995 318.3 11.5 319 11.9
2008-05-27 07:17:55 51°14.575 2°54.816 328.7 12 331 11.1
2008-05-27 07:18:54 51°14.742 2°54.649 323.6 11.9 325 11.1
2008-05-27 07:19:53 51°14.91 2°54.481 328.7 12.2 331 10.6
2008-05-27 07:20:52 51°15.081 2°54.319 326.3 12.2 329 9.9
2008-05-27 07:21:52 51°15.255 2°54.159 329.8 12.1 331 10.4
2008-05-27 07:22:52 51°15.432 2°54.003 331.4 12.1 332 10.9
2008-05-27 07:23:52 51°15.613 2°53.855 332.1 12.2 333 11.6
2008-05-27 07:24:52 51°15.794 2°53.701 329.5 12.2 331 12.1
2008-05-27 07:25:52 51°15.973 2°53.554 330.6 11.8 333 11.9
2008-05-27 07:26:53 51°16.155 2°53.401 331.1 12.3 333 12.8
2008-05-27 07:27:52 51°16.331 2°53.25 329.4 12.1 332 12.8
2008-05-27 07:28:52 51°16.51 2°53.099 331.4 12.1 332 12.8
2008-05-27 07:29:53 51°16.691 2°52.948 330.9 12.1 332 12.2
2008-05-27 07:30:52 51°16.867 2°52.799 331 12.1 332 10.1
2008-05-27 07:31:53 51°17.05 2°52.648 330.6 12.1 332 10.8
2008-05-27 07:32:52 51°17.234 2°52.525 342.5 12.2 344 10.8
2008-05-27 07:33:52 51°17.437 2°52.481 356.6 12.5 356 11.5
2008-05-27 07:34:52 51°17.645 2°52.462 354.9 12.5 355 11.4
2008-05-27 07:35:53 51°17.852 2°52.443 358.6 12 359 11.4
2008-05-27 07:36:53 51°18.056 2°52.468 10.5 12.3 11 11.7
2008-05-27 07:37:52 51°18.249 2°52.563 19.5 12.5 19 11.8
2008-05-27 07:38:52 51°18.441 2°52.666 19.2 12.2 19 12.3
2008-05-27 07:39:52 51°18.637 2°52.77 22 12.4 21 12.1
2008-05-27 07:40:52 51°18.829 2°52.9 24.5 12.7 24 12.9
2008-05-27 07:41:52 51°19.021 2°53.024 22.8 12.5 22 13.5
2008-05-27 07:42:52 51°19.209 2°53.143 23.4 12.2 24 13.7
2008-05-27 07:43:52 51°19.393 2°53.275 26.4 12.1 25 13.8
2008-05-27 07:44:52 51°19.577 2°53.41 26.9 12.3 25 14.4
2008-05-27 07:45:52 51°19.764 2°53.54 23.9 12.1 23 14.6
2008-05-27 07:46:52 51°19.957 2°53.668 23.7 12.5 23 15.7
2008-05-27 07:47:53 51°20.15 2°53.797 24.1 12.3 22 16.4
2008-05-27 07:48:52 51°20.332 2°53.929 25.3 12.3 24 16.4
2008-05-27 07:49:52 51°20.52 2°54.064 24.1 12.2 25 16.7
2008-05-27 07:50:52 51°20.713 2°54.193 23.1 12.6 22 17.1
2008-05-27 07:51:52 51°20.904 2°54.331 25.2 12.8 24 17.3
2008-05-27 07:52:52 51°21.095 2°54.465 24.3 12.4 22 17
2008-05-27 07:53:52 51°21.289 2°54.6 24.5 12.7 24 17.5
2008-05-27 07:54:52 51°21.48 2°54.735 23.9 12.4 25 17.4
2008-05-27 07:55:52 51°21.676 2°54.872 23.7 13.2 24 18.2
2008-05-27 07:56:53 51°21.873 2°55.008 24 12.8 24 18.1
2008-05-27 07:57:52 51°22.065 2°55.146 24.4 13.1 25 18.8
2008-05-27 07:58:52 51°22.258 2°55.286 25.5 12.5 24 19.2
2008-05-27 07:59:52 51°22.448 2°55.419 24.1 12.4 23 19
2008-05-27 08:00:52 51°22.641 2°55.554 24.1 12.7 22 18.7
2008-05-27 08:01:52 51°22.835 2°55.685 23.3 12.7 22 19
2008-05-27 08:02:52 51°23.025 2°55.821 25.3 12.6 25 19.6
2008-05-27 08:03:53 51°23.22 2°55.96 25.1 12.7 24 20.2
2008-05-27 08:04:52 51°23.411 2°56.097 23.3 12.6 23 19.6
2008-05-27 08:05:52 51°23.604 2°56.225 24 12.6 21 18.1
2008-05-27 08:06:52 51°23.794 2°56.357 24.9 12.6 23 16.6
2008-05-27 08:07:52 51°23.987 2°56.49 24.4 12.8 23 16
2008-05-27 08:08:52 51°24.182 2°56.621 25 12.9 22 16.6
2008-05-27 08:09:52 51°24.379 2°56.752 24.5 12.9 23 17.1
2008-05-27 08:10:52 51°24.573 2°56.891 24.7 13 24 20.1
2008-05-27 08:11:52 51°24.769 2°57.032 22.7 13.1 24 22
2008-05-27 08:12:53 51°24.964 2°57.175 24.7 12.8 25 23.3
2008-05-27 08:13:52 51°25.153 2°57.315 24.6 12.7 24 24.4
2008-05-27 08:14:52 51°25.345 2°57.46 24 13 25 25.4
2008-05-27 08:15:52 51°25.54 2°57.603 25.3 12.8 25 25
2008-05-27 08:16:52 51°25.736 2°57.741 23.7 12.8 24 24.9
2008-05-27 08:17:52 51°25.931 2°57.877 24 12.7 23 23.1
2008-05-27 08:18:53 51°26.127 2°58.015 23.9 12.7 25 21.8
2008-05-27 08:19:52 51°26.318 2°58.151 23.7 12.4 24 19.1
2008-05-27 08:20:52 51°26.513 2°58.285 24.6 13 22 18
2008-05-27 08:21:52 51°26.707 2°58.417 23.7 12.3 24 19.3
2008-05-27 08:22:52 51°26.904 2°58.552 24.9 13.2 23 15.8
2008-05-27 08:23:52 51°27.104 2°58.685 24.5 13.1 21 17.9
2008-05-27 08:24:52 51°27.301 2°58.81 24.2 12.8 22 15.9
2008-05-27 08:25:52 51°27.501 2°58.939 25.2 12.9 23 18.3
2008-05-27 08:26:52 51°27.699 2°59.063 23 13.1 20 18.4
2008-05-27 08:27:52 51°27.896 2°59.205 28.1 12.8 25 19.2
2008-05-27 08:28:53 51°28.095 2°59.353 26.8 12.9 25 20.7
2008-05-27 08:29:52 51°28.288 2°59.494 27.6 12.9 25 23.3
2008-05-27 08:30:52 51°28.48 2°59.634 27.2 12.6 24 25.4
2008-05-27 08:31:52 51°28.669 2°59.775 28.3 12.8 25 26.9
2008-05-27 08:32:52 51°28.852 2°59.932 31.6 12.6 31 27.7
2008-05-27 08:33:52 51°29.035 3°0.093 31.4 12.5 28 28.6
2008-05-27 08:34:53 51°29.217 3°0.25 29 12.7 28 28.9
2008-05-27 08:35:53 51°29.403 3°0.401 27.5 12.6 26 29.2
2008-05-27 08:36:52 51°29.591 3°0.537 24 12.7 22 29
2008-05-27 08:37:53 51°29.786 3°0.669 23.8 12.5 24 27.6
2008-05-27 08:38:52 51°29.975 3°0.798 24.9 12.8 23 27.8
2008-05-27 08:39:52 51°30.171 3°0.929 23.1 12.9 22 28.2
2008-05-27 08:40:52 51°30.366 3°1.063 24.2 11.6 24 27.6
2008-05-27 08:41:53 51°30.477 3°1.16 39.6 5 39 28.1
2008-05-27 08:42:52 51°30.515 3°1.233 58.1 2.9 51 27.9
2008-05-27 08:43:52 51°30.535 3°1.278 58.9 1.1 59 28.2
2008-05-27 08:44:55 51°30.538 3°1.275 74 0.8 263 -999
2008-05-27 08:45:56 51°30.54 3°1.248 87.5 0.9 288 -999
2008-05-27 08:46:55 51°30.545 3°1.239 97.5 0.4 20 28
2008-05-27 08:47:54 51°30.549 3°1.252 102.5 0.7 66 28.1
2008-05-27 08:48:53 51°30.552 3°1.267 102.6 0.5 102 28.1
2008-05-27 08:49:52 51°30.553 3°1.281 109.1 0.4 121 27.9
2008-05-27 08:50:53 51°30.554 3°1.292 119.8 0.4 84 27.8
2008-05-27 08:51:53 51°30.554 3°1.299 131.3 0.3 179 28
2008-05-27 08:52:52 51°30.553 3°1.304 144.2 0.1 157 27.9
2008-05-27 08:53:52 51°30.552 3°1.307 152 0.1 176 28
2008-05-27 08:54:52 51°30.551 3°1.31 159.5 0.2 160 27.8
2008-05-27 08:55:52 51°30.549 3°1.313 168.2 0.1 159 27.9
2008-05-27 08:56:52 51°30.547 3°1.313 177.4 0.1 195 27.9
2008-05-27 08:57:52 51°30.546 3°1.313 184 0.1 166 27.8
2008-05-27 08:58:52 51°30.544 3°1.313 190.5 0.2 123 27.7
2008-05-27 08:59:52 51°30.542 3°1.312 194.3 0.2 215 27.7
2008-05-27 09:00:53 51°30.539 3°1.309 199.5 0.3 210 27.8
2008-05-27 09:01:52 51°30.538 3°1.306 205.2 0.2 280 27.9
2008-05-27 09:02:53 51°30.538 3°1.304 214 0.2 277 27.7
2008-05-27 09:03:52 51°30.538 3°1.3 224.8 0.2 306 27.9
2008-05-27 09:04:53 51°30.537 3°1.298 231 0.1 252 27.6
2008-05-27 09:05:52 51°30.538 3°1.296 237.5 0.4 320 27.5
2008-05-27 09:06:53 51°30.538 3°1.295 242.3 0.3 291 27.4
2008-05-27 09:07:52 51°30.537 3°1.293 250.1 0.1 278 27.8
2008-05-27 09:08:53 51°30.539 3°1.291 259.3 -999 36 27.8
2008-05-27 09:09:53 51°30.54 3°1.293 262.3 0.1 101 27.8
2008-05-27 09:10:53 51°30.54 3°1.294 265.4 0.1 46 27.7
2008-05-27 09:11:53 51°30.54 3°1.297 266.9 0.2 78 27.7
2008-05-27 09:12:53 51°30.54 3°1.298 269 0.2 163 28
2008-05-27 09:13:53 51°30.54 3°1.299 270.3 0.2 182 27.9
2008-05-27 09:14:53 51°30.54 3°1.298 274.7 0.2 350 27.8
2008-05-27 09:15:52 51°30.54 3°1.297 281.9 0.1 221 27.8
2008-05-27 09:16:53 51°30.542 3°1.297 284.5 0.3 21 27.5
2008-05-27 09:17:52 51°30.541 3°1.297 287.1 0.4 199 27.8
2008-05-27 09:18:52 51°30.541 3°1.297 291.1 0.1 78 27.6
2008-05-27 09:19:53 51°30.539 3°1.299 291.1 0.2 57 27.7
2008-05-27 09:20:53 51°30.536 3°1.3 291.9 0.2 168 27.6
2008-05-27 09:21:52 51°30.534 3°1.3 288.9 0.1 135 27.4
2008-05-27 09:22:53 51°30.531 3°1.301 288 0.4 172 27.5
2008-05-27 09:23:52 51°30.53 3°1.302 288.4 -999 345 27.7
2008-05-27 09:24:53 51°30.527 3°1.301 290.6 0.2 189 27.4
2008-05-27 09:25:52 51°30.525 3°1.301 294.5 0.1 37 27.7
2008-05-27 09:26:53 51°30.524 3°1.3 304 0.2 209 27.7
2008-05-27 09:27:53 51°30.522 3°1.299 308.3 0.1 139 27.6
2008-05-27 09:28:52 51°30.522 3°1.298 317.4 0.1 234 27.5
2008-05-27 09:29:53 51°30.522 3°1.295 320.8 0.1 270 27.7
2008-05-27 09:30:53 51°30.521 3°1.293 329.5 0.1 327 27.7
2008-05-27 09:31:53 51°30.521 3°1.291 336.8 0.1 264 27.7
2008-05-27 09:32:52 51°30.519 3°1.289 340.3 0.2 224 27.5
2008-05-27 09:33:53 51°30.518 3°1.287 345 0.2 222 27.8
2008-05-27 09:34:52 51°30.517 3°1.286 347.6 0.1 178 27.5
2008-05-27 09:35:53 51°30.516 3°1.284 346.7 0.1 228 27.3
2008-05-27 09:36:53 51°30.515 3°1.282 348.9 0.2 216 27.6
2008-05-27 09:37:52 51°30.513 3°1.281 349.3 0.1 176 27.6
2008-05-27 09:38:53 51°30.514 3°1.281 353.5 0.3 34 27.4
2008-05-27 09:39:52 51°30.527 3°1.28 354.8 0.9 8 27.4
2008-05-27 09:40:53 51°30.538 3°1.284 8.5 0.5 10 27.3
2008-05-27 09:41:53 51°30.544 3°1.286 13 0.3 4 27.5
2008-05-27 09:42:52 51°30.552 3°1.289 8.6 1.1 2 27.2
2008-05-27 09:43:53 51°30.582 3°1.263 311.4 3.2 314 27.1
2008-05-27 09:44:52 51°30.662 3°1.125 315.6 9.5 315 27.3
2008-05-27 09:45:53 51°30.79 3°0.91 312.8 11.6 311 27.4
2008-05-27 09:46:52 51°30.918 3°0.676 310 12.1 308 27.4
2008-05-27 09:47:52 51°31.029 3°0.413 306.4 12 309 26.6
2008-05-27 09:48:53 51°31.155 3°0.155 311.7 12.1 311 26.6
2008-05-27 09:49:53 51°31.293 2°59.917 315.8 12.1 314 27.4
2008-05-27 09:50:53 51°31.431 2°59.68 314.2 12.2 312 26.9
2008-05-27 09:51:53 51°31.566 2°59.443 316.3 12.1 315 27.6
2008-05-27 09:52:53 51°31.702 2°59.207 311.4 10.9 308 28.1
2008-05-27 09:53:53 51°31.782 2°59.106 355.5 4.4 353 29.6
2008-05-27 09:54:53 51°31.85 2°59.104 4 4.4 -999 29.5
2008-05-27 09:55:53 51°31.925 2°59.14 27 5.1 24 29.9
2008-05-27 09:56:53 51°31.98 2°59.165 8.4 0.3 339 30.1
2008-05-27 09:57:56 51°31.968 2°59.159 12.2 0.8 205 29.9
2008-05-27 09:58:56 51°31.956 2°59.151 14.9 0.7 192 30.1
2008-05-27 09:59:55 51°31.946 2°59.144 20.5 0.2 227 30
2008-05-27 10:00:54 51°31.95 2°59.145 20.7 0.4 12 30
2008-05-27 10:01:53 51°31.955 2°59.147 22.4 0.2 353 30
2008-05-27 10:02:53 51°31.956 2°59.147 22.7 0.1 236 30.1
2008-05-27 10:03:53 51°31.953 2°59.144 28 0.2 167 30
2008-05-27 10:04:53 51°31.949 2°59.142 34.7 0.2 163 29.8
2008-05-27 10:05:53 51°31.95 2°59.143 35.4 0.2 26 30
2008-05-27 10:06:53 51°31.953 2°59.145 28.3 0.2 3 30
2008-05-27 10:07:53 51°31.954 2°59.146 27.5 0.1 29 30
2008-05-27 10:08:53 51°31.953 2°59.147 29.8 0.2 158 29.9
2008-05-27 10:09:52 51°31.95 2°59.146 34.6 0.3 207 29.8
2008-05-27 10:10:53 51°31.948 2°59.145 31.8 0.1 1 29.7
2008-05-27 10:11:52 51°31.951 2°59.146 25.4 0.3 10 29.9
2008-05-27 10:12:52 51°31.952 2°59.147 24.7 0.2 269 29.5
2008-05-27 10:13:53 51°31.95 2°59.146 23.1 0.1 195 30
2008-05-27 10:14:53 51°31.949 2°59.144 23 0.1 227 29.8
2008-05-27 10:15:53 51°31.949 2°59.145 21.5 -999 331 29.7
2008-05-27 10:16:53 51°31.95 2°59.145 21.4 0.2 89 29.8
2008-05-27 10:17:53 51°31.95 2°59.147 23.3 -999 103 29.8
2008-05-27 10:18:53 51°31.949 2°59.149 26.1 0.1 72 29.9
2008-05-27 10:19:53 51°31.949 2°59.15 23.8 0.1 325 29.8
2008-05-27 10:20:53 51°31.949 2°59.15 21.6 0.1 145 29.9
2008-05-27 10:21:53 51°31.948 2°59.151 20.8 0.1 142 29.6
2008-05-27 10:22:53 51°31.948 2°59.148 15.9 0.1 307 29.9
2008-05-27 10:23:53 51°31.95 2°59.147 13.4 0.2 330 29.8
2008-05-27 10:24:53 51°31.951 2°59.146 13 0.1 31 29.8
2008-05-27 10:25:53 51°31.95 2°59.145 15.2 0.1 275 30
2008-05-27 10:26:53 51°31.95 2°59.145 17.3 0.1 169 29.5
2008-05-27 10:27:52 51°31.949 2°59.142 18.6 0.1 290 30
2008-05-27 10:28:53 51°31.95 2°59.144 21.8 0.2 80 29.7
2008-05-27 10:29:53 51°31.951 2°59.146 23.3 0.1 51 29.8
2008-05-27 10:30:53 51°31.951 2°59.147 23.9 -999 339 29.7
2008-05-27 10:31:53 51°31.948 2°59.147 23.1 0.2 94 29.8
2008-05-27 10:32:53 51°31.949 2°59.149 19.8 0.2 39 29.9
2008-05-27 10:33:53 51°31.951 2°59.15 18 0.1 14 29.8
2008-05-27 10:34:52 51°31.952 2°59.148 15.4 -999 6 29.8
2008-05-27 10:35:53 51°31.952 2°59.145 15.8 0.2 226 29.7
2008-05-27 10:36:53 51°31.95 2°59.143 16.8 0.2 218 29.7
2008-05-27 10:37:53 51°31.949 2°59.142 19.1 0.1 333 29.7
2008-05-27 10:38:53 51°31.952 2°59.142 19 0.2 11 29.7
2008-05-27 10:39:52 51°31.952 2°59.141 20.2 0.2 179 29.8
2008-05-27 10:40:53 51°31.95 2°59.142 22.7 0.2 118 29.9
2008-05-27 10:41:52 51°31.949 2°59.142 23.2 0.1 79 29.9
2008-05-27 10:42:53 51°31.951 2°59.143 22.9 0.1 63 29.8
2008-05-27 10:43:53 51°31.951 2°59.144 21.4 0.2 240 29.7
2008-05-27 10:44:53 51°31.95 2°59.143 20 0.2 245 29.4
2008-05-27 10:45:53 51°31.949 2°59.143 20.2 0.1 43 29.7
2008-05-27 10:46:53 51°31.949 2°59.144 23.3 0.1 209 29.6
2008-05-27 10:47:53 51°31.953 2°59.147 23.3 0.6 30 29.6
2008-05-27 10:48:53 51°31.963 2°59.151 17.9 0.7 11 29.9
2008-05-27 10:49:53 51°31.976 2°59.157 18.8 0.7 11 29.9
2008-05-27 10:50:52 51°31.987 2°59.155 16.3 0.8 359 30.1
2008-05-27 10:51:53 51°31.998 2°59.159 14.5 0.7 -999 30.5
2008-05-27 10:52:53 51°32.062 2°59.179 13.4 7 11 31.5
2008-05-27 10:53:53 51°32.204 2°59.225 14 9.8 13 32.6
2008-05-27 10:54:53 51°32.384 2°59.282 8.6 11.4 6 34
2008-05-27 10:55:52 51°32.568 2°59.265 351.5 11.2 349 32.8
2008-05-27 10:56:53 51°32.736 2°59.1 322.7 12.1 317 23.2
2008-05-27 10:57:53 51°32.881 2°58.875 320.1 12.2 315 12.7
2008-05-27 10:58:53 51°33.017 2°58.643 311.9 12.2 309 16.3
2008-05-27 10:59:53 51°33.148 2°58.4 314.2 12 310 15.9
2008-05-27 11:00:53 51°33.277 2°58.179 318 8.7 315 18.6
2008-05-27 11:01:53 51°33.339 2°58.136 9.2 1.8 348 19.8
2008-05-27 11:02:53 51°33.383 2°58.114 332.3 4.8 318 19.8
2008-05-27 11:03:53 51°33.47 2°57.938 312.9 10.9 308 22.8
2008-05-27 11:04:53 51°33.591 2°57.68 309.3 12.3 305 23.3
2008-05-27 11:05:53 51°33.713 2°57.416 312.3 12.4 307 26.5
2008-05-27 11:06:53 51°33.836 2°57.153 310.6 12.4 305 27.4
2008-05-27 11:07:52 51°33.953 2°56.889 311.3 12.3 307 27.6
2008-05-27 11:08:52 51°34.076 2°56.626 311.3 12.4 307 29.7
2008-05-27 11:09:53 51°34.201 2°56.354 310.5 12.6 306 30.7
2008-05-27 11:10:53 51°34.32 2°56.082 304.2 12.5 301 30.4
2008-05-27 11:11:53 51°34.368 2°55.754 280.2 12.8 273 31.2
2008-05-27 11:12:53 51°34.389 2°55.417 280.1 12.1 278 30.1
2008-05-27 11:13:52 51°34.401 2°55.182 281.7 7.1 273 31.1
2008-05-27 11:14:53 51°34.352 2°55.026 216.3 6.7 217 30.8
2008-05-27 11:15:53 51°34.224 2°54.888 213.1 10.9 211 29.4
2008-05-27 11:16:53 51°34.059 2°54.703 211.6 13.3 215 29.7
2008-05-27 11:17:53 51°33.881 2°54.505 213 12.7 215 28.7
2008-05-27 11:18:53 51°33.695 2°54.312 208.7 13.7 209 28.1
2008-05-27 11:19:53 51°33.504 2°54.141 202.8 12.8 201 26.3
2008-05-27 11:20:53 51°33.292 2°54.062 183.7 13.2 184 25.9
2008-05-27 11:21:53 51°33.076 2°54.024 185 13 188 23.3
2008-05-27 11:22:52 51°32.861 2°53.974 186.4 13.8 186 25.1
2008-05-27 11:23:53 51°32.64 2°53.925 185.6 13.5 188 21.6
2008-05-27 11:24:52 51°32.424 2°53.864 185 13.2 191 23.6
2008-05-27 11:25:53 51°32.199 2°53.806 186.5 14.2 192 18.3
2008-05-27 11:26:53 51°31.983 2°53.756 182.6 13.3 185 19.8
2008-05-27 11:27:53 51°31.763 2°53.724 179.9 13.2 181 17.7
2008-05-27 11:28:53 51°31.542 2°53.691 179.2 12.9 187 20.2
2008-05-27 11:29:53 51°31.321 2°53.658 184.9 13.8 191 19.3
2008-05-27 11:30:53 51°31.101 2°53.632 180.3 13.8 184 19
2008-05-27 11:31:52 51°30.885 2°53.605 182.1 13.1 181 18.7
2008-05-27 11:32:53 51°30.66 2°53.582 180.8 13 180 24.1
2008-05-27 11:33:53 51°30.439 2°53.554 182.2 13 185 28.7
2008-05-27 11:34:53 51°30.22 2°53.535 181.4 13.1 183 30.1
2008-05-27 11:35:53 51°30.001 2°53.516 182.3 13.3 181 30.3
2008-05-27 11:36:53 51°29.781 2°53.505 179.2 13 181 31.6
2008-05-27 11:37:53 51°29.561 2°53.493 179.2 13.4 183 29.2
2008-05-27 11:38:52 51°29.346 2°53.495 178.4 13.5 175 29
2008-05-27 11:39:53 51°29.122 2°53.502 177.6 13.2 178 27.7
2008-05-27 11:40:53 51°28.899 2°53.507 178.4 13.3 175 26.4
2008-05-27 11:41:53 51°28.677 2°53.518 178.2 13.3 180 24.5
2008-05-27 11:42:53 51°28.456 2°53.523 178.3 13.6 183 22.4
2008-05-27 11:43:53 51°28.236 2°53.537 176.3 13.2 176 21.3
2008-05-27 11:44:53 51°28.017 2°53.54 177 12.9 176 20.8
2008-05-27 11:45:53 51°27.795 2°53.547 175.4 13.4 176 18.4
2008-05-27 11:46:53 51°27.572 2°53.552 174.8 13.5 181 22.1
2008-05-27 11:47:52 51°27.355 2°53.557 177.4 13.4 181 25.9
2008-05-27 11:48:53 51°27.128 2°53.55 178.1 13.2 186 25.3
2008-05-27 11:49:53 51°26.904 2°53.543 178.3 13.6 182 25.7
2008-05-27 11:50:53 51°26.681 2°53.538 176.8 13.6 176 29.7
2008-05-27 11:51:53 51°26.459 2°53.529 176.8 12.9 183 31.1
2008-05-27 11:52:53 51°26.236 2°53.515 176.7 13.9 181 30.9
2008-05-27 11:53:53 51°26.013 2°53.503 177 13.1 183 29.5
2008-05-27 11:54:53 51°25.789 2°53.493 176.2 13.7 184 26.2
2008-05-27 11:55:53 51°25.569 2°53.484 177.4 13 182 24.2
2008-05-27 11:56:53 51°25.347 2°53.475 178.5 13.7 182 21.6
2008-05-27 11:57:53 51°25.126 2°53.464 175.9 13.2 184 20.9
2008-05-27 11:58:53 51°24.903 2°53.449 177.1 13.5 181 17.8
2008-05-27 11:59:53 51°24.679 2°53.417 180.5 13.6 186 17.2
2008-05-27 12:00:53 51°24.455 2°53.376 183.1 13.8 189 17.8
2008-05-27 12:01:52 51°24.236 2°53.323 182.2 13.7 189 14.9
2008-05-27 12:02:53 51°24.008 2°53.273 182.9 14 189 17.8
2008-05-27 12:03:53 51°23.784 2°53.219 183.1 13.8 190 20.4
2008-05-27 12:04:53 51°23.559 2°53.172 183.2 13.6 188 21.1
2008-05-27 12:05:53 51°23.332 2°53.112 181.7 13.4 187 19.8
2008-05-27 12:06:53 51°23.107 2°53.058 183.3 13.7 189 21.3
2008-05-27 12:07:53 51°22.884 2°53.009 180.5 13.6 186 22.1
2008-05-27 12:08:53 51°22.664 2°52.96 181.7 13.1 189 22
2008-05-27 12:09:53 51°22.443 2°52.9 185.2 13.7 188 22.1
2008-05-27 12:10:52 51°22.227 2°52.829 184 13.6 193 23.5
2008-05-27 12:11:53 51°22.004 2°52.77 180.1 13.1 188 22.3
2008-05-27 12:12:53 51°21.783 2°52.71 183.1 13.6 188 19.9
2008-05-27 12:13:53 51°21.563 2°52.65 182.6 13.7 189 18
2008-05-27 12:14:53 51°21.343 2°52.591 184.2 13.5 194 16.1
2008-05-27 12:15:53 51°21.123 2°52.55 174.8 13.2 184 15.1
2008-05-27 12:16:53 51°20.901 2°52.527 173.6 13.3 179 14.4
2008-05-27 12:17:53 51°20.681 2°52.504 176.2 13.4 185 13.7
2008-05-27 12:18:53 51°20.459 2°52.481 174.6 13 183 15.1
2008-05-27 12:19:53 51°20.236 2°52.457 172.8 13.2 183 15.5
2008-05-27 12:20:53 51°20.012 2°52.425 176.8 13.2 187 15.7
2008-05-27 12:21:53 51°19.787 2°52.397 176.2 14.3 184 15.3
2008-05-27 12:22:53 51°19.562 2°52.366 175.7 14.1 187 15
2008-05-27 12:23:53 51°19.337 2°52.333 176.6 13.8 184 14.4
2008-05-27 12:24:53 51°19.114 2°52.314 173.6 13.4 183 13.5
2008-05-27 12:25:53 51°18.892 2°52.294 175.7 13.3 186 12.7
2008-05-27 12:26:53 51°18.67 2°52.265 174.1 13.3 184 11.7
2008-05-27 12:27:53 51°18.447 2°52.261 171.4 13.3 180 11
2008-05-27 12:28:53 51°18.225 2°52.245 174.7 13.2 183 10.4
2008-05-27 12:29:53 51°18.003 2°52.23 171.8 13.4 180 10
2008-05-27 12:30:53 51°17.78 2°52.223 175.1 13.8 183 10
2008-05-27 12:31:53 51°17.557 2°52.212 174.9 13.5 181 10.1
2008-05-27 12:32:53 51°17.335 2°52.206 173.6 13.6 182 9.9
2008-05-27 12:33:53 51°17.113 2°52.187 175.1 13.4 181 9.8
2008-05-27 12:34:53 51°16.892 2°52.181 169.7 13.1 177 9.6
2008-05-27 12:35:53 51°16.697 2°52.306 140.7 12.6 150 9.6
2008-05-27 12:36:53 51°16.515 2°52.478 141.6 12.8 150 11.1
2008-05-27 12:37:53 51°16.332 2°52.638 143.7 11.9 151 11.6
2008-05-27 12:38:53 51°16.148 2°52.8 142 12.9 153 11.5
2008-05-27 12:39:53 51°15.963 2°52.954 140.4 12.4 152 11.4
2008-05-27 12:40:53 51°15.778 2°53.104 142.6 12.5 154 11
2008-05-27 12:41:53 51°15.599 2°53.27 138.8 12.4 147 10.5
2008-05-27 12:42:53 51°15.424 2°53.441 140.2 12.4 152 10.2
2008-05-27 12:43:53 51°15.247 2°53.61 140.3 11.9 150 9.5
2008-05-27 12:44:53 51°15.069 2°53.779 141.9 12.6 150 9
2008-05-27 12:45:53 51°14.925 2°53.996 122.5 11.3 135 9
2008-05-27 12:46:53 51°14.805 2°54.212 122.9 10.4 133 9.7
2008-05-27 12:47:53 51°14.691 2°54.417 118.1 10.2 124 9.9
2008-05-27 12:48:53 51°14.579 2°54.624 121 10.6 128 9.8
2008-05-27 12:49:53 51°14.469 2°54.836 125.8 10.7 130 10.4
2008-05-27 12:50:53 51°14.37 2°55.061 120.8 10.5 124 10.5
2008-05-27 12:51:57 51°14.28 2°55.258 126.8 6.8 128 -999
2008-05-27 12:52:56 51°14.209 2°55.372 139.8 6.2 139 9.7
2008-05-27 12:53:56 51°14.126 2°55.446 156.3 5.6 158 10.6
2008-05-27 12:54:56 51°14.034 2°55.504 157.7 6.2 158 10